Airfield :







YOU CAN JOIN US ON...

 
LOGIN :

Register | Disclaimer

   EN    FR    IT 

 









Legend :    VFR   Marginal VFR   IFR   Intensive IFR   Very Intensive IFR
Visi :
Ceiling :
>= 8 km
>= 3000ft
5 to 8 km
1000 to 3000 ft
1500m to 5 km
500 to 1000 ft
800 to 1500m
200 to 500 ft
< 800m
< 200 ft
Symbols :   Thunderstorms  Fog  Heavy snow  Heavy precipitations  Wind > 20 kt







- Airport Elevation : 1161 ft


KBML - Berlin Regional

CURRENT METAR :
  • 200852Z AUTO 00000KT 10SM CLR M17/M19 A3032 RMK AO2 SLP292 I1000 I3000 T11721194 56005

EXPIRED METARs :
  • 200752Z AUTO 00000KT 10SM CLR M17/M19 A3032 RMK AO2 SLP290 I1000 T11671189
  • 200652Z AUTO 00000KT 10SM CLR M16/M18 A3033 RMK AO2 SLP295 T11561178

TAF N/A
KZBW FIR / North America



MET'MAP, your aeronautical weather chart ! - Copyright ORBIFLY December 2007 - Disclaimer

ORBIFLY MET'MAP TEAM :

Programming & Development : Alexandra Zaïnal
Concept & Development : Baudouin d'Aumeries
Co-Development & Prog : Marc-Olivier Méhu
Technical & hardware support : Manuel Goepfert

Contact : metmap@orbifly.com




SOURCES & CREDITS :

   NOAA